Time;durP1;ratioP1;P1;durP2;ratioP2;P2;SDS_P1;SDS_P2;PMS_P1;PMS_P2;Temp;Humidity;BMP_temperature;BMP_pressure;BME280_temperature;BME280_humidity;BME280_pressure;Samples;Min_cycle;Max_cycle;Signal;HPM_P1;HPM_P2
2022/03/09 00:00:40;;;;;;;4.53;2.40;;;16.30;64.60;;;;;;2012672;28;20616;-72
2022/03/09 00:01:41;;;;;;;4.05;2.25;;;16.40;64.80;;;;;;2012696;28;20188;-73
2022/03/09 00:02:40;;;;;;;2.38;1.48;;;16.30;64.60;;;;;;2012612;28;20183;-73
2022/03/09 00:03:38;;;;;;;4.20;2.00;;;16.40;64.70;;;;;;2012854;28;20586;-74
2022/03/09 00:04:37;;;;;;;2.50;1.80;;;16.30;64.60;;;;;;2012637;28;20252;-73
2022/03/09 00:05:36;;;;;;;2.50;2.10;;;16.30;64.60;;;;;;2012676;28;20204;-74
2022/03/09 00:06:34;;;;;;;2.67;1.70;;;16.30;64.60;;;;;;2012768;28;20177;-73
2022/03/09 00:07:33;;;;;;;4.03;2.10;;;16.30;64.70;;;;;;2012485;28;20177;-73
2022/03/09 00:08:31;;;;;;;2.47;2.10;;;16.30;64.60;;;;;;2012579;28;20187;-73
2022/03/09 00:09:30;;;;;;;3.60;1.90;;;16.30;64.60;;;;;;2012590;28;20538;-73
2022/03/09 00:10:29;;;;;;;2.30;1.73;;;16.30;64.60;;;;;;2012007;28;20180;-73
2022/03/09 00:11:27;;;;;;;2.97;1.80;;;16.30;64.70;;;;;;2012108;28;20563;-73
2022/03/09 00:12:26;;;;;;;4.10;2.20;;;16.30;64.70;;;;;;2012617;28;20176;-73
2022/03/09 00:13:25;;;;;;;1.80;1.42;;;16.30;64.80;;;;;;2012631;28;20207;-73
2022/03/09 00:14:25;;;;;;;3.37;2.10;;;16.30;64.80;;;;;;2012595;28;20177;-73
2022/03/09 00:15:23;;;;;;;2.30;1.73;;;16.30;64.80;;;;;;2011976;28;20168;-73
2022/03/09 00:16:22;;;;;;;2.90;2.20;;;16.30;64.80;;;;;;2012078;28;20172;-73
2022/03/09 00:17:20;;;;;;;3.30;1.80;;;16.30;64.70;;;;;;2012530;28;20211;-72
2022/03/09 00:18:19;;;;;;;2.00;1.73;;;16.30;64.70;;;;;;2011983;28;20586;-72
2022/03/09 00:19:18;;;;;;;2.63;1.90;;;16.30;64.80;;;;;;2011956;28;20183;-72
2022/03/09 00:20:16;;;;;;;3.40;2.00;;;16.30;64.80;;;;;;2011824;28;20910;-72
2022/03/09 00:21:17;;;;;;;2.70;1.67;;;16.30;64.70;;;;;;2012587;28;20172;-72
2022/03/09 00:22:16;;;;;;;4.70;2.00;;;16.20;64.70;;;;;;2012629;28;20182;-73
2022/03/09 00:23:14;;;;;;;3.83;2.72;;;16.30;64.90;;;;;;2012458;28;20227;-73
2022/03/09 00:24:14;;;;;;;2.70;1.90;;;16.20;64.70;;;;;;2012552;28;20531;-72
2022/03/09 00:25:13;;;;;;;5.25;2.10;;;16.20;64.70;;;;;;2012540;28;20176;-73
2022/03/09 00:26:11;;;;;;;3.60;2.13;;;16.30;64.90;;;;;;2012550;28;20207;-72
2022/03/09 00:27:10;;;;;;;2.80;1.77;;;16.20;64.70;;;;;;2011971;28;20180;-73
2022/03/09 00:28:08;;;;;;;3.17;1.83;;;16.30;64.90;;;;;;2011927;28;20258;-72
2022/03/09 00:29:07;;;;;;;2.23;1.30;;;16.20;64.70;;;;;;2012461;28;20230;-72
2022/03/09 00:30:06;;;;;;;4.77;2.00;;;16.20;64.70;;;;;;2012465;28;20199;-72
2022/03/09 00:31:05;;;;;;;3.40;2.05;;;16.20;64.80;;;;;;2012434;28;20643;-73
2022/03/09 00:32:04;;;;;;;4.87;2.43;;;16.20;64.80;;;;;;2012312;28;20249;-72
2022/03/09 00:33:03;;;;;;;2.15;1.92;;;16.20;64.80;;;;;;2011808;28;20231;-72
2022/03/09 00:34:01;;;;;;;2.13;1.93;;;16.20;64.80;;;;;;2011866;28;20256;-72
2022/03/09 00:35:00;;;;;;;1.67;1.43;;;16.20;64.80;;;;;;2012446;28;20172;-73
2022/03/09 00:35:59;;;;;;;3.57;1.80;;;16.20;64.90;;;;;;2011764;28;20665;-72
2022/03/09 00:36:58;;;;;;;2.58;1.90;;;16.20;64.80;;;;;;2011887;28;20192;-72
2022/03/09 00:37:57;;;;;;;4.20;2.20;;;16.20;64.80;;;;;;2012520;28;20647;-73
2022/03/09 00:38:56;;;;;;;4.40;1.97;;;16.20;64.80;;;;;;2012586;28;20180;-72
2022/03/09 00:39:56;;;;;;;3.22;1.85;;;16.20;64.90;;;;;;2012500;28;20255;-72
2022/03/09 00:40:54;;;;;;;4.90;2.15;;;16.20;64.90;;;;;;2011896;28;20184;-73
2022/03/09 00:41:53;;;;;;;2.90;1.90;;;16.20;64.90;;;;;;2011867;28;20251;-73
2022/03/09 00:42:51;;;;;;;3.70;1.77;;;16.20;64.90;;;;;;2012366;28;20689;-72
2022/03/09 00:43:52;;;;;;;3.40;1.80;;;16.20;64.80;;;;;;2012117;28;20354;-72
2022/03/09 00:44:50;;;;;;;3.65;2.05;;;16.20;64.90;;;;;;2012245;28;20423;-73
2022/03/09 00:45:48;;;;;;;3.07;1.73;;;16.20;64.90;;;;;;2012494;28;20176;-73
2022/03/09 00:46:47;;;;;;;3.40;1.93;;;16.10;64.80;;;;;;2012638;28;20199;-74
2022/03/09 00:47:46;;;;;;;2.63;1.53;;;16.20;65.50;;;;;;2012387;28;20198;-73
2022/03/09 00:48:45;;;;;;;2.63;1.93;;;16.10;64.80;;;;;;2012397;28;20180;-73
2022/03/09 00:49:44;;;;;;;2.20;1.80;;;16.20;65.00;;;;;;2011598;28;20578;-73
2022/03/09 00:50:43;;;;;;;2.70;2.17;;;16.10;64.90;;;;;;2011806;28;20454;-73
2022/03/09 00:51:42;;;;;;;3.28;2.10;;;16.10;64.90;;;;;;2012432;28;20535;-73
2022/03/09 00:52:41;;;;;;;3.27;2.10;;;16.20;64.90;;;;;;2012407;28;20181;-73
2022/03/09 00:53:42;;;;;;;6.37;2.20;;;16.10;64.80;;;;;;2012405;28;20540;-73
2022/03/09 00:54:41;;;;;;;2.60;1.80;;;16.10;64.90;;;;;;2012508;28;20172;-73
2022/03/09 00:55:40;;;;;;;4.10;2.30;;;16.10;64.90;;;;;;2011762;28;20271;-73
2022/03/09 00:56:40;;;;;;;2.72;2.00;;;16.20;65.00;;;;;;2011709;28;20176;-74
2022/03/09 00:57:40;;;;;;;3.25;2.28;;;16.10;64.90;;;;;;2012337;28;20670;-74
2022/03/09 00:58:38;;;;;;;3.80;2.15;;;16.10;65.00;;;;;;2012524;28;20164;-74
2022/03/09 00:59:37;;;;;;;4.03;1.93;;;16.20;64.90;;;;;;2012421;28;20211;-74
2022/03/09 01:00:35;;;;;;;3.70;2.23;;;16.10;65.60;;;;;;2012408;28;20208;-73
2022/03/09 01:01:34;;;;;;;3.27;1.83;;;16.10;64.90;;;;;;2012607;28;20196;-73
2022/03/09 01:02:32;;;;;;;2.37;1.60;;;16.10;65.00;;;;;;2012490;28;20222;-73
2022/03/09 01:03:31;;;;;;;3.00;2.50;;;16.10;65.00;;;;;;2012390;28;20191;-73
2022/03/09 01:04:34;;;;;;;5.30;2.67;;;16.10;65.00;;;;;;2011729;28;20184;-73
2022/03/09 01:05:32;;;;;;;2.88;1.77;;;16.10;65.00;;;;;;2011809;28;20168;-73
2022/03/09 01:06:33;;;;;;;3.77;1.93;;;16.10;65.10;;;;;;2012534;28;20164;-73
2022/03/09 01:07:32;;;;;;;2.28;1.65;;;16.10;65.00;;;;;;2012346;28;20173;-73
2022/03/09 01:08:31;;;;;;;1.80;1.40;;;16.10;65.00;;;;;;2012214;28;20175;-73
2022/03/09 01:09:30;;;;;;;2.30;1.63;;;16.10;65.10;;;;;;2012356;28;20210;-73
2022/03/09 01:10:28;;;;;;;4.10;2.28;;;16.10;65.20;;;;;;2012428;28;20395;-73
2022/03/09 01:11:27;;;;;;;3.73;2.20;;;16.10;65.20;;;;;;2012407;28;20173;-74
2022/03/09 01:12:26;;;;;;;2.93;2.00;;;16.10;65.10;;;;;;2012321;28;20234;-73
2022/03/09 01:13:24;;;;;;;3.30;1.80;;;16.10;65.20;;;;;;2012387;28;20225;-72
2022/03/09 01:14:23;;;;;;;3.27;2.13;;;16.10;65.20;;;;;;2012384;28;20168;-73
2022/03/09 01:15:22;;;;;;;3.95;1.98;;;16.10;65.10;;;;;;2012262;28;20259;-73
2022/03/09 01:16:21;;;;;;;2.93;2.00;;;16.10;65.20;;;;;;2012507;28;20185;-73
2022/03/09 01:17:19;;;;;;;5.10;2.10;;;16.10;65.20;;;;;;2012259;28;20407;-73
2022/03/09 01:18:18;;;;;;;3.50;1.83;;;16.10;65.10;;;;;;2012312;28;20252;-73
2022/03/09 01:19:16;;;;;;;2.97;1.90;;;16.10;65.10;;;;;;2012524;28;20256;-73
2022/03/09 01:20:15;;;;;;;2.57;1.77;;;16.10;65.10;;;;;;2012133;28;20180;-73
2022/03/09 01:21:13;;;;;;;4.00;1.90;;;16.10;65.10;;;;;;2012317;28;20255;-73
2022/03/09 01:22:12;;;;;;;2.80;1.93;;;16.10;65.10;;;;;;2012286;28;20172;-73
2022/03/09 01:23:10;;;;;;;2.33;1.90;;;16.10;65.20;;;;;;2012338;28;20193;-73
2022/03/09 01:24:09;;;;;;;3.50;2.10;;;16.10;65.10;;;;;;2011628;28;20181;-73
2022/03/09 01:25:08;;;;;;;3.13;2.07;;;16.10;65.10;;;;;;2011722;28;20183;-73
2022/03/09 01:26:07;;;;;;;2.03;1.65;;;16.10;65.20;;;;;;2012206;28;20172;-73
2022/03/09 01:27:06;;;;;;;2.23;2.03;;;16.00;65.10;;;;;;2012292;28;20260;-73
2022/03/09 01:28:04;;;;;;;3.00;2.13;;;16.10;65.20;;;;;;2012455;28;20230;-73
2022/03/09 01:29:03;;;;;;;3.03;1.97;;;16.00;65.10;;;;;;2012352;28;20264;-72
2022/03/09 01:30:03;;;;;;;3.30;2.20;;;16.00;65.20;;;;;;2012276;28;20592;-73
2022/03/09 01:31:01;;;;;;;3.45;2.13;;;16.00;65.20;;;;;;2011594;28;20634;-73
2022/03/09 01:32:00;;;;;;;3.37;1.53;;;16.00;65.20;;;;;;2011804;28;20188;-72
2022/03/09 01:32:58;;;;;;;3.10;1.70;;;16.10;65.20;;;;;;2012007;28;20591;-72
2022/03/09 01:33:58;;;;;;;3.80;2.60;;;16.10;65.20;;;;;;2012262;28;20180;-74
2022/03/09 01:34:57;;;;;;;2.70;1.90;;;16.00;65.10;;;;;;2012208;28;20176;-74
2022/03/09 01:35:55;;;;;;;3.40;2.03;;;16.00;65.10;;;;;;2012330;28;20176;-73
2022/03/09 01:36:54;;;;;;;3.70;1.80;;;16.00;65.20;;;;;;2012274;28;20208;-73
2022/03/09 01:37:52;;;;;;;1.73;1.60;;;16.00;65.10;;;;;;2012410;28;20177;-73
2022/03/09 01:38:53;;;;;;;3.43;2.17;;;16.00;65.10;;;;;;2012362;28;20524;-73
2022/03/09 01:39:52;;;;;;;3.78;1.83;;;16.10;65.30;;;;;;2012262;28;20624;-73
2022/03/09 01:40:51;;;;;;;2.75;1.75;;;16.10;65.20;;;;;;2012319;28;20651;-74
2022/03/09 01:41:50;;;;;;;3.40;1.80;;;16.00;65.10;;;;;;2012290;28;20194;-73
2022/03/09 01:42:48;;;;;;;3.83;2.30;;;16.00;65.10;;;;;;2012125;28;20207;-75
2022/03/09 01:44:07;;;;;;;4.30;2.10;;;16.00;65.20;;;;;;2012045;28;20282;-73
2022/03/09 01:45:09;;;;;;;3.45;1.83;;;16.00;64.90;;;;;;2012194;28;20547;-72
2022/03/09 01:46:07;;;;;;;3.60;2.08;;;16.00;65.20;;;;;;2012048;28;20185;-72
2022/03/09 01:47:06;;;;;;;3.27;2.50;;;16.00;65.10;;;;;;2012235;28;20276;-73
2022/03/09 01:48:04;;;;;;;3.57;1.87;;;16.00;65.10;;;;;;2012214;28;20238;-74
2022/03/09 01:49:04;;;;;;;3.40;1.93;;;16.00;65.10;;;;;;2012162;28;20623;-73
2022/03/09 01:50:04;;;;;;;2.90;1.67;;;16.00;65.10;;;;;;2011365;28;20208;-73
2022/03/09 01:51:03;;;;;;;2.08;1.83;;;16.00;65.10;;;;;;2011635;28;20563;-72
2022/03/09 01:52:02;;;;;;;4.90;2.60;;;16.00;65.20;;;;;;2012158;28;20204;-73
2022/03/09 01:53:01;;;;;;;4.22;2.20;;;16.00;65.10;;;;;;2012093;28;20246;-74
2022/03/09 01:54:00;;;;;;;4.23;2.13;;;16.00;65.10;;;;;;2012153;28;20262;-73
2022/03/09 01:54:59;;;;;;;3.72;2.38;;;16.00;65.10;;;;;;2012243;28;20599;-73
2022/03/09 01:55:57;;;;;;;2.37;1.50;;;16.00;65.20;;;;;;2011577;28;20184;-73
2022/03/09 01:56:58;;;;;;;2.13;1.77;;;16.10;65.20;;;;;;2020306;28;20191;-73
2022/03/09 01:57:57;;;;;;;2.40;2.20;;;16.00;65.10;;;;;;2028679;28;20199;-72
2022/03/09 01:58:56;;;;;;;3.23;1.80;;;16.00;65.10;;;;;;2013949;28;20180;-74
2022/03/09 01:59:54;;;;;;;2.40;1.70;;;16.00;65.20;;;;;;2013363;28;20415;-74
2022/03/09 02:00:53;;;;;;;4.03;2.10;;;16.00;65.10;;;;;;2013550;28;20188;-73
2022/03/09 02:01:52;;;;;;;3.00;2.23;;;16.00;65.20;;;;;;2013642;28;20229;-73
2022/03/09 02:02:50;;;;;;;2.10;1.77;;;16.00;65.20;;;;;;2012885;28;20221;-74
2022/03/09 02:03:49;;;;;;;2.47;1.97;;;16.00;65.20;;;;;;2020983;28;20564;-74
2022/03/09 02:04:47;;;;;;;2.70;1.90;;;16.00;65.20;;;;;;2028677;28;20174;-73
2022/03/09 02:05:46;;;;;;;2.50;2.17;;;16.00;66.00;;;;;;2014159;28;20441;-74
2022/03/09 02:06:45;;;;;;;3.37;2.00;;;16.00;65.20;;;;;;2013690;28;20180;-72
2022/03/09 02:10:20;;;;;;;2.40;1.80;;;16.00;65.30;;;;;;2013398;28;20267;-72
2022/03/09 02:11:20;;;;;;;3.05;2.13;;;15.90;65.30;;;;;;2012849;28;20172;-73
2022/03/09 02:12:19;;;;;;;2.72;2.17;;;15.90;65.30;;;;;;2020983;28;20176;-73
2022/03/09 02:13:17;;;;;;;6.20;2.20;;;15.90;65.30;;;;;;2028585;28;20680;-72
2022/03/09 02:14:36;;;;;;;2.60;1.87;;;15.90;65.30;;;;;;2014294;28;20403;-73
2022/03/09 02:15:34;;;;;;;5.10;2.30;;;15.90;65.10;;;;;;2013457;28;20160;-73
2022/03/09 02:16:34;;;;;;;6.10;2.50;;;15.90;65.30;;;;;;2013493;28;20180;-73
2022/03/09 02:17:34;;;;;;;1.75;1.65;;;15.90;65.30;;;;;;2012804;28;20177;-73
2022/03/09 02:18:33;;;;;;;2.55;1.63;;;15.90;65.30;;;;;;2012952;28;20620;-73
2022/03/09 02:19:34;;;;;;;3.97;1.97;;;15.90;65.30;;;;;;2012731;28;20180;-72
2022/03/09 02:20:40;;;;;;;2.25;1.75;;;15.90;65.30;;;;;;2012661;28;20218;-73
2022/03/09 02:21:40;;;;;;;1.90;1.65;;;15.90;65.30;;;;;;2013389;28;20501;-73
2022/03/09 02:22:41;;;;;;;2.47;1.90;;;15.90;65.30;;;;;;2013477;28;20219;-71
2022/03/09 02:23:40;;;;;;;4.22;2.25;;;15.90;65.30;;;;;;2012995;28;20215;-73
2022/03/09 02:24:39;;;;;;;2.83;1.90;;;15.90;65.30;;;;;;2012832;28;20215;-73
2022/03/09 02:25:38;;;;;;;3.95;2.50;;;15.90;65.40;;;;;;2013594;28;20174;-73
2022/03/09 02:26:36;;;;;;;3.60;2.20;;;15.90;65.30;;;;;;2013419;28;20177;-73
2022/03/09 02:27:35;;;;;;;3.10;2.07;;;15.90;65.30;;;;;;2013411;28;20238;-73
2022/03/09 02:28:38;;;;;;;2.30;1.63;;;15.90;65.30;;;;;;2012773;28;20165;-73
2022/03/09 02:29:37;;;;;;;3.20;2.10;;;15.80;65.30;;;;;;2012813;28;20418;-73
2022/03/09 02:30:36;;;;;;;2.55;2.03;;;15.80;65.30;;;;;;2013386;28;20255;-73
2022/03/09 02:31:36;;;;;;;2.03;1.83;;;15.90;65.40;;;;;;2013370;28;20169;-73
2022/03/09 02:32:46;;;;;;;3.45;1.95;;;15.80;65.30;;;;;;2013236;28;20260;-72
2022/03/09 02:33:45;;;;;;;3.97;2.03;;;15.80;65.30;;;;;;2012898;28;20172;-73
2022/03/09 02:34:45;;;;;;;2.50;1.67;;;15.80;65.30;;;;;;2012777;28;20172;-73
2022/03/09 02:35:44;;;;;;;3.65;2.38;;;15.80;65.30;;;;;;2013271;28;20431;-74
2022/03/09 02:36:42;;;;;;;4.20;2.23;;;15.80;65.40;;;;;;2013368;28;20634;-73
2022/03/09 02:37:41;;;;;;;4.23;2.40;;;15.80;65.40;;;;;;2013277;28;20714;-73
2022/03/09 02:38:40;;;;;;;2.90;1.83;;;15.80;65.30;;;;;;2013243;28;20177;-73
2022/03/09 02:39:39;;;;;;;2.67;1.67;;;15.80;65.40;;;;;;2013403;28;20422;-73
2022/03/09 02:40:37;;;;;;;3.00;2.30;;;15.80;65.30;;;;;;2013381;28;20169;-74
2022/03/09 02:41:36;;;;;;;2.47;1.73;;;15.80;65.40;;;;;;2013285;28;20392;-74
2022/03/09 02:44:30;;;;;;;1.85;1.60;;;15.80;65.30;;;;;;1909649;28;20213;-73
2022/03/09 02:45:28;;;;;;;2.37;2.17;;;15.80;65.50;;;;;;2013271;28;20168;-73
2022/03/09 02:46:27;;;;;;;1.93;1.63;;;15.80;65.50;;;;;;2012637;28;20408;-73
2022/03/09 02:47:26;;;;;;;3.23;1.83;;;15.80;65.40;;;;;;2012725;28;20188;-74
2022/03/09 02:48:24;;;;;;;2.57;2.00;;;15.80;65.40;;;;;;2013280;28;20160;-73
2022/03/09 02:49:23;;;;;;;3.03;1.80;;;15.80;65.40;;;;;;2013244;28;20172;-73
2022/03/09 02:50:21;;;;;;;2.73;2.10;;;15.80;65.40;;;;;;2013214;28;20208;-74
2022/03/09 02:51:20;;;;;;;2.87;1.97;;;15.80;65.40;;;;;;2013192;28;20534;-74
2022/03/09 02:52:18;;;;;;;6.10;2.40;;;15.80;65.40;;;;;;2013309;28;20344;-72
2022/03/09 02:53:17;;;;;;;3.67;2.10;;;15.70;65.30;;;;;;2012671;28;20423;-73
2022/03/09 02:54:16;;;;;;;2.07;1.60;;;15.80;65.50;;;;;;2012892;28;20222;-74
2022/03/09 02:55:15;;;;;;;3.07;1.90;;;15.80;65.50;;;;;;2028195;28;20538;-73
2022/03/09 02:56:14;;;;;;;2.72;1.80;;;15.80;65.60;;;;;;2020381;28;20176;-73
2022/03/09 02:57:13;;;;;;;3.78;1.40;;;15.80;65.50;;;;;;2012723;28;20168;-73
2022/03/09 02:58:12;;;;;;;1.93;1.40;;;15.80;65.60;;;;;;2013117;28;20256;-72
2022/03/09 02:59:11;;;;;;;3.23;2.10;;;15.70;65.40;;;;;;2013201;28;20266;-74
2022/03/09 03:00:11;;;;;;;2.40;1.90;;;15.80;65.60;;;;;;2013222;28;20187;-74
2022/03/09 03:01:12;;;;;;;3.65;1.85;;;15.80;65.60;;;;;;2013151;28;20670;-73
2022/03/09 03:02:13;;;;;;;2.40;1.90;;;15.80;65.60;;;;;;2013101;28;20677;-73
2022/03/09 03:03:11;;;;;;;1.88;1.65;;;15.80;65.60;;;;;;2012524;28;20246;-73
2022/03/09 03:04:11;;;;;;;2.23;1.90;;;15.70;65.60;;;;;;2012593;28;20701;-73
2022/03/09 03:05:11;;;;;;;2.53;2.15;;;15.70;65.50;;;;;;2013004;28;20191;-73
2022/03/09 03:06:12;;;;;;;1.90;1.40;;;15.80;65.60;;;;;;2013134;28;20230;-73
2022/03/09 03:07:10;;;;;;;3.35;2.08;;;15.80;65.60;;;;;;2012446;28;20188;-73
2022/03/09 03:08:09;;;;;;;3.57;2.00;;;15.70;65.50;;;;;;2011506;28;20260;-73
2022/03/09 03:09:09;;;;;;;2.00;1.60;;;15.80;65.70;;;;;;2012766;28;20199;-73
2022/03/09 03:10:08;;;;;;;2.25;1.60;;;15.80;65.70;;;;;;2012979;28;20203;-73
2022/03/09 03:11:10;;;;;;;2.07;1.67;;;15.70;65.60;;;;;;2013182;28;20169;-73
2022/03/09 03:12:10;;;;;;;2.70;1.92;;;15.70;65.60;;;;;;2013076;28;20411;-73
2022/03/09 03:13:08;;;;;;;6.65;2.42;;;15.70;65.60;;;;;;2013023;28;20192;-72
2022/03/09 03:14:07;;;;;;;4.40;2.17;;;15.70;65.70;;;;;;2013214;28;20259;-73
2022/03/09 03:15:06;;;;;;;2.33;1.90;;;15.70;65.60;;;;;;2013082;28;20172;-72
2022/03/09 03:16:06;;;;;;;2.70;1.90;;;15.70;65.60;;;;;;2013007;28;20175;-72
2022/03/09 03:17:04;;;;;;;4.00;2.42;;;15.70;65.60;;;;;;2013237;28;20508;-73
2022/03/09 03:18:04;;;;;;;4.00;2.27;;;15.70;65.60;;;;;;2012530;28;20196;-73
2022/03/09 03:19:04;;;;;;;2.35;1.70;;;15.70;65.60;;;;;;2012423;28;20172;-73
2022/03/09 03:20:04;;;;;;;2.67;1.90;;;15.70;65.50;;;;;;2012999;28;20207;-73
2022/03/09 03:21:05;;;;;;;2.83;2.13;;;15.70;65.60;;;;;;2012178;28;20180;-73
2022/03/09 03:22:04;;;;;;;2.33;1.83;;;15.70;65.60;;;;;;2012299;28;20232;-73
2022/03/09 03:23:02;;;;;;;3.77;2.30;;;15.70;65.60;;;;;;2012882;28;20196;-72
2022/03/09 03:24:01;;;;;;;3.37;1.93;;;15.70;65.60;;;;;;2012379;28;20203;-72
2022/03/09 03:24:59;;;;;;;2.87;2.03;;;15.70;66.30;;;;;;2012487;28;20200;-72
2022/03/09 03:25:59;;;;;;;2.30;1.63;;;15.70;65.60;;;;;;2012970;28;20650;-72
2022/03/09 03:26:57;;;;;;;3.78;2.10;;;15.70;65.70;;;;;;2013110;28;20556;-73
2022/03/09 03:27:56;;;;;;;2.47;2.20;;;15.70;65.60;;;;;;2012965;28;20180;-73
2022/03/09 03:28:54;;;;;;;2.97;2.03;;;15.70;65.70;;;;;;2013034;28;20198;-72
2022/03/09 03:29:53;;;;;;;2.47;1.90;;;15.70;65.70;;;;;;2013049;28;20207;-73
2022/03/09 03:30:52;;;;;;;2.70;2.00;;;15.70;65.80;;;;;;2012913;28;20172;-72
2022/03/09 03:31:50;;;;;;;3.00;2.08;;;15.70;65.70;;;;;;2013013;28;20195;-72
2022/03/09 03:32:49;;;;;;;3.87;2.00;;;15.70;65.70;;;;;;2012777;28;20218;-73
2022/03/09 03:33:49;;;;;;;3.30;1.80;;;15.70;65.70;;;;;;2012846;28;20222;-73
2022/03/09 03:34:47;;;;;;;2.70;2.15;;;15.70;65.60;;;;;;2012867;28;20180;-73
2022/03/09 03:35:47;;;;;;;3.87;1.97;;;15.70;65.70;;;;;;2013074;28;20177;-72
2022/03/09 03:36:47;;;;;;;3.58;1.90;;;15.70;65.70;;;;;;2013048;28;20616;-72
2022/03/09 03:37:45;;;;;;;2.55;1.88;;;15.70;65.80;;;;;;2012833;28;20188;-73
2022/03/09 03:38:45;;;;;;;2.97;2.30;;;15.70;65.70;;;;;;2012857;28;20179;-73
2022/03/09 03:39:45;;;;;;;2.42;1.60;;;15.70;65.70;;;;;;2012923;28;20168;-73
2022/03/09 03:40:44;;;;;;;2.05;1.70;;;15.60;65.70;;;;;;2012819;28;20180;-73
2022/03/09 03:41:43;;;;;;;2.35;1.67;;;15.70;65.70;;;;;;2012232;28;20180;-73
2022/03/09 03:42:41;;;;;;;2.20;1.60;;;15.70;65.70;;;;;;2020149;28;20267;-73
2022/03/09 03:43:40;;;;;;;2.60;1.67;;;15.70;65.70;;;;;;2027751;28;20179;-73
2022/03/09 03:44:39;;;;;;;3.70;2.70;;;15.70;65.70;;;;;;2013288;28;20178;-73
2022/03/09 03:45:38;;;;;;;4.20;2.60;;;15.70;65.70;;;;;;2012795;28;20157;-72
2022/03/09 03:46:40;;;;;;;3.40;1.90;;;15.60;65.70;;;;;;2012763;28;20183;-73
2022/03/09 03:47:38;;;;;;;2.28;1.90;;;15.60;65.70;;;;;;2012855;28;20207;-72
2022/03/09 03:48:37;;;;;;;2.80;1.90;;;15.60;65.70;;;;;;2012883;28;20160;-72
2022/03/09 03:49:35;;;;;;;2.90;2.03;;;15.60;65.70;;;;;;2012046;28;20180;-73
2022/03/09 03:50:34;;;;;;;2.80;1.83;;;15.60;65.70;;;;;;2012242;28;20600;-72
2022/03/09 03:51:32;;;;;;;2.27;1.63;;;15.60;65.70;;;;;;2012703;28;20168;-72
2022/03/09 03:52:31;;;;;;;5.73;2.30;;;15.60;65.70;;;;;;2012872;28;20407;-73
2022/03/09 03:53:29;;;;;;;3.23;1.73;;;15.70;65.80;;;;;;2012913;28;20179;-73
2022/03/09 03:54:28;;;;;;;2.93;2.00;;;15.60;65.70;;;;;;2012305;28;20230;-73
2022/03/09 03:55:26;;;;;;;2.60;1.90;;;15.60;65.70;;;;;;2012480;28;20624;-73
2022/03/09 03:56:25;;;;;;;1.97;1.50;;;15.60;65.70;;;;;;2012969;28;20182;-73
2022/03/09 03:57:25;;;;;;;3.03;2.00;;;15.60;65.60;;;;;;2012731;28;20165;-73
2022/03/09 03:58:24;;;;;;;2.63;1.85;;;15.60;65.60;;;;;;2012744;28;20211;-72
2022/03/09 03:59:22;;;;;;;3.73;2.20;;;15.60;65.50;;;;;;2012891;28;20586;-73
2022/03/09 04:00:23;;;;;;;2.07;1.70;;;15.60;65.50;;;;;;2012934;28;20673;-73
2022/03/09 04:01:21;;;;;;;1.85;1.55;;;15.60;65.50;;;;;;2012738;28;20219;-72
2022/03/09 04:02:20;;;;;;;2.97;1.80;;;15.60;65.60;;;;;;2012854;28;20677;-75
2022/03/09 04:03:20;;;;;;;2.77;2.00;;;15.60;65.60;;;;;;2012722;28;20192;-73
2022/03/09 04:04:20;;;;;;;2.38;1.70;;;15.60;65.70;;;;;;2012699;28;20205;-72
2022/03/09 04:05:19;;;;;;;2.45;2.03;;;15.60;65.50;;;;;;2012937;28;20183;-73
2022/03/09 04:06:18;;;;;;;4.20;2.50;;;15.60;65.60;;;;;;2012128;28;20191;-73
2022/03/09 04:07:17;;;;;;;3.20;2.07;;;15.60;65.70;;;;;;2012108;28;20176;-72
2022/03/09 04:08:15;;;;;;;1.90;1.80;;;15.50;65.40;;;;;;2012842;28;20176;-73
2022/03/09 04:09:14;;;;;;;3.13;2.00;;;15.60;65.70;;;;;;2012682;28;20456;-73
2022/03/09 04:10:13;;;;;;;2.07;1.87;;;15.50;65.60;;;;;;2012694;28;20196;-72
2022/03/09 04:11:12;;;;;;;3.88;1.92;;;15.60;65.70;;;;;;2012991;28;20172;-73
2022/03/09 04:12:10;;;;;;;2.07;1.87;;;15.60;65.70;;;;;;2012825;28;20180;-72
2022/03/09 04:13:10;;;;;;;1.97;1.70;;;15.60;65.70;;;;;;2012290;28;20188;-73
2022/03/09 04:14:10;;;;;;;4.35;1.90;;;15.60;65.70;;;;;;2020184;28;20175;-72
2022/03/09 04:15:08;;;;;;;3.60;2.72;;;15.50;65.60;;;;;;2028066;28;20175;-72
2022/03/09 04:16:07;;;;;;;2.63;1.80;;;15.60;65.70;;;;;;2013604;28;20196;-73
2022/03/09 04:17:06;;;;;;;4.23;2.60;;;15.60;65.50;;;;;;2012955;28;20226;-73
2022/03/09 04:18:05;;;;;;;1.65;1.40;;;15.60;65.60;;;;;;2012667;28;20182;-73
2022/03/09 04:19:03;;;;;;;2.10;1.70;;;15.60;65.70;;;;;;2012803;28;20184;-73
2022/03/09 04:20:02;;;;;;;3.07;1.60;;;15.50;65.60;;;;;;2012622;28;20180;-72
2022/03/09 04:21:01;;;;;;;3.13;2.00;;;15.50;65.60;;;;;;2012762;28;20635;-73
2022/03/09 04:21:59;;;;;;;2.50;2.00;;;15.50;65.70;;;;;;2013148;28;20174;-73
2022/03/09 04:22:59;;;;;;;2.50;2.03;;;15.60;65.60;;;;;;2013080;28;20236;-73
2022/03/09 04:23:57;;;;;;;2.05;1.60;;;15.60;65.70;;;;;;2013216;28;20314;-72
2022/03/09 04:24:56;;;;;;;3.93;2.03;;;15.50;65.60;;;;;;2012880;28;20184;-72
2022/03/09 04:25:54;;;;;;;2.67;1.90;;;15.50;65.60;;;;;;2012747;28;20176;-74
2022/03/09 04:26:53;;;;;;;3.10;2.10;;;15.60;65.70;;;;;;2012681;28;20259;-72
2022/03/09 04:27:51;;;;;;;2.37;1.63;;;15.50;65.60;;;;;;2012924;28;20191;-72
2022/03/09 04:28:50;;;;;;;2.80;1.77;;;15.50;65.60;;;;;;2012763;28;20533;-73
2022/03/09 04:29:49;;;;;;;2.10;1.83;;;15.50;65.60;;;;;;2012566;28;20215;-72
2022/03/09 04:30:47;;;;;;;3.90;1.80;;;15.50;65.60;;;;;;2012683;28;20179;-73
2022/03/09 04:31:46;;;;;;;5.50;2.23;;;15.50;65.50;;;;;;2012706;28;20169;-72
2022/03/09 04:32:44;;;;;;;2.47;1.80;;;15.50;65.60;;;;;;2012751;28;20295;-73
2022/03/09 04:33:43;;;;;;;3.07;2.10;;;15.50;65.60;;;;;;2012770;28;20180;-72
2022/03/09 04:34:42;;;;;;;2.90;1.90;;;15.60;65.80;;;;;;2012914;28;20176;-72
2022/03/09 04:35:41;;;;;;;2.80;2.20;;;15.50;65.60;;;;;;2013098;28;20180;-73
2022/03/09 04:36:40;;;;;;;2.97;2.00;;;15.50;65.60;;;;;;2013061;28;20203;-72
2022/03/09 04:37:38;;;;;;;2.80;2.03;;;15.50;65.60;;;;;;2013165;28;20172;-72
2022/03/09 04:38:37;;;;;;;2.93;1.60;;;15.60;65.80;;;;;;2013094;28;20924;-72
2022/03/09 04:39:35;;;;;;;2.00;1.80;;;15.60;65.70;;;;;;2013122;28;20247;-72
2022/03/09 04:40:34;;;;;;;4.43;2.50;;;15.50;65.60;;;;;;2012994;28;20177;-74
2022/03/09 04:41:32;;;;;;;2.03;1.50;;;15.50;65.60;;;;;;2013317;28;20612;-72
2022/03/09 04:42:33;;;;;;;2.47;1.80;;;15.50;65.70;;;;;;2013782;28;20176;-73
2022/03/09 04:43:32;;;;;;;4.90;2.00;;;15.50;65.80;;;;;;2013655;28;20177;-73
2022/03/09 04:44:32;;;;;;;2.00;1.80;;;15.50;65.70;;;;;;2012570;28;20207;-73
2022/03/09 04:45:30;;;;;;;2.57;1.80;;;15.50;65.80;;;;;;2012997;28;20285;-73
2022/03/09 04:46:29;;;;;;;3.00;1.93;;;15.40;65.70;;;;;;2016214;28;20176;-72
2022/03/09 04:47:27;;;;;;;4.07;1.80;;;15.50;65.70;;;;;;2014899;28;20246;-73
2022/03/09 04:48:26;;;;;;;2.23;2.00;;;15.50;65.80;;;;;;2014388;28;20156;-72
2022/03/09 04:49:25;;;;;;;2.00;1.47;;;15.50;65.60;;;;;;2013504;28;20172;-72
2022/03/09 04:50:24;;;;;;;2.33;1.77;;;15.50;65.80;;;;;;2013219;28;20299;-72
2022/03/09 04:51:22;;;;;;;2.70;1.90;;;15.50;65.70;;;;;;2013408;28;20187;-73
2022/03/09 04:52:21;;;;;;;2.47;1.93;;;15.50;65.80;;;;;;2013393;28;20172;-72
2022/03/09 04:53:19;;;;;;;1.70;1.60;;;15.50;65.80;;;;;;2012954;28;20204;-72
2022/03/09 04:54:18;;;;;;;3.77;1.80;;;15.50;65.70;;;;;;2027472;28;20210;-72
2022/03/09 04:55:16;;;;;;;2.40;1.90;;;15.40;65.70;;;;;;2029245;28;20199;-73
2022/03/09 04:56:17;;;;;;;2.83;1.50;;;15.50;65.80;;;;;;2021009;28;20198;-73
2022/03/09 04:57:16;;;;;;;3.65;1.95;;;15.40;65.70;;;;;;2020428;28;20203;-72
2022/03/09 04:58:14;;;;;;;3.20;1.97;;;15.50;65.90;;;;;;2020419;28;20164;-73
2022/03/09 04:59:14;;;;;;;1.63;1.50;;;15.40;65.70;;;;;;2020731;28;20179;-72
2022/03/09 05:00:13;;;;;;;2.78;1.85;;;15.50;65.70;;;;;;2020262;28;20173;-72
2022/03/09 05:01:11;;;;;;;3.30;2.00;;;15.40;65.80;;;;;;2036514;28;20195;-73
2022/03/09 05:02:10;;;;;;;3.87;2.40;;;15.50;65.80;;;;;;2028886;28;20180;-72
2022/03/09 05:03:08;;;;;;;1.77;1.67;;;15.50;65.70;;;;;;2018088;28;20707;-73
2022/03/09 05:04:07;;;;;;;2.63;2.00;;;15.50;65.80;;;;;;2016998;28;20218;-73
2022/03/09 05:05:06;;;;;;;2.30;1.80;;;15.50;65.70;;;;;;2013093;28;20235;-74
2022/03/09 05:06:05;;;;;;;3.65;1.70;;;15.50;65.80;;;;;;2013073;28;20242;-73
2022/03/09 05:07:03;;;;;;;2.80;2.27;;;15.50;65.80;;;;;;2014376;28;20196;-73
2022/03/09 05:08:02;;;;;;;3.83;2.00;;;15.50;65.70;;;;;;2014248;28;20648;-72
2022/03/09 05:09:01;;;;;;;2.30;1.70;;;15.50;65.70;;;;;;2015739;28;20843;-73
2022/03/09 05:10:00;;;;;;;4.83;2.33;;;15.50;65.80;;;;;;2017051;28;20222;-73
2022/03/09 05:10:58;;;;;;;3.55;2.50;;;15.50;65.80;;;;;;2014850;28;20240;-74
2022/03/09 05:11:56;;;;;;;3.10;2.00;;;15.40;65.70;;;;;;2015960;28;20188;-73
2022/03/09 05:12:56;;;;;;;2.33;1.80;;;15.50;65.80;;;;;;2020701;28;20188;-73